Time;durP1;ratioP1;P1;durP2;ratioP2;P2;SDS_P1;SDS_P2;PMS_P1;PMS_P2;Temp;Humidity;BMP_temperature;BMP_pressure;BME280_temperature;BME280_humidity;BME280_pressure;Samples;Min_cycle;Max_cycle;Signal;HPM_P1;HPM_P2
2022/01/25 00:08:54;;;;;;;12.10;5.90;;;;;;;-4.23;62.31;100060.73;25292;1303;3055500;-68
2022/01/25 00:25:45;;;;;;;10.90;4.80;;;;;;;-4.34;62.53;100044.40;25244;1306;3061086;-68
2022/01/25 00:28:21;;;;;;;14.20;6.50;;;;;;;-4.16;62.33;100039.76;25298;1303;3052645;-69
2022/01/25 00:33:34;;;;;;;16.10;6.20;;;;;;;-4.18;62.09;100032.39;25272;1303;3051026;-68
2022/01/25 00:36:06;;;;;;;11.10;6.40;;;;;;;-4.18;62.43;100031.88;25240;1303;3029252;-69
2022/01/25 00:38:35;;;;;;;13.40;5.90;;;;;;;-4.17;62.24;100033.08;25257;1306;3026766;-70
2022/01/25 00:41:04;;;;;;;14.10;6.30;;;;;;;-4.11;62.52;100029.53;25249;1306;3026545;-70
2022/01/25 00:43:33;;;;;;;14.60;5.60;;;;;;;-4.18;62.43;100033.25;25257;1303;3071224;-71
2022/01/25 00:46:06;;;;;;;13.60;6.20;;;;;;;-4.23;62.73;100037.30;25288;1303;3026322;-68
2022/01/25 00:54:09;;;;;;;12.90;5.30;;;;;;;-4.00;62.17;100026.36;25253;1303;3049655;-67
2022/01/25 00:56:46;;;;;;;13.50;5.30;;;;;;;-4.02;62.19;100036.95;25241;1306;3055548;-65
2022/01/25 00:59:20;;;;;;;12.50;5.90;;;;;;;-4.02;62.15;100028.41;25262;1303;3053434;-68
2022/01/25 01:01:51;;;;;;;12.10;5.40;;;;;;;-4.06;62.17;100028.55;25335;1306;3056083;-68
2022/01/25 01:04:20;;;;;;;11.70;5.80;;;;;;;-4.06;61.93;100026.33;25246;1303;3027488;-71
2022/01/25 01:06:49;;;;;;;11.50;6.00;;;;;;;-4.16;62.17;100016.48;25282;1303;3026949;-70
2022/01/25 01:09:20;;;;;;;14.50;6.70;;;;;;;-4.27;62.53;100020.33;25281;1303;3057755;-68
2022/01/25 01:12:00;;;;;;;13.80;4.90;;;;;;;-4.33;62.69;100025.06;25247;1303;3027450;-70
2022/01/25 01:29:07;;;;;;;13.50;5.90;;;;;;;-4.17;62.43;100021.44;25290;1303;3052044;-67
2022/01/25 01:34:40;;;;;;;12.00;5.70;;;;;;;-4.09;62.01;100025.27;25246;1303;3049901;-69
2022/01/25 01:45:38;;;;;;;13.80;6.60;;;;;;;-4.08;61.91;100029.05;25313;1303;3047757;-68
2022/01/25 01:48:10;;;;;;;14.00;6.40;;;;;;;-4.03;61.88;100026.36;25339;1303;3055799;-68
2022/01/25 01:50:39;;;;;;;17.80;7.60;;;;;;;-4.14;61.98;100025.58;25318;1303;3026572;-70
2022/01/25 01:53:08;;;;;;;14.80;6.50;;;;;;;-4.21;62.74;100026.37;25307;1303;3028947;-69
2022/01/25 01:55:37;;;;;;;17.50;7.00;;;;;;;-4.01;62.38;100024.98;25266;1303;3026617;-68
2022/01/25 01:58:06;;;;;;;14.90;7.10;;;;;;;-3.98;61.74;100021.92;25299;1303;3052223;-70
2022/01/25 02:00:41;;;;;;;15.20;6.40;;;;;;;-3.96;61.95;100021.43;25315;1303;3026787;-67
2022/01/25 02:03:09;;;;;;;17.50;7.60;;;;;;;-3.97;61.72;100030.83;25338;1303;3029044;-67
2022/01/25 02:05:38;;;;;;;14.20;6.50;;;;;;;-3.97;61.63;100031.35;25310;1303;3026426;-69
2022/01/25 02:08:07;;;;;;;16.60;6.90;;;;;;;-3.95;61.73;100038.90;25277;1303;3058330;-68
2022/01/25 02:10:38;;;;;;;14.10;6.00;;;;;;;-3.94;61.09;100037.53;25322;1303;3026852;-68
2022/01/25 02:13:08;;;;;;;16.60;6.50;;;;;;;-4.12;61.47;100035.33;25278;1303;3026594;-65
2022/01/25 02:15:39;;;;;;;15.20;7.20;;;;;;;-4.22;61.73;100033.71;25296;1303;3057997;-69
2022/01/25 02:23:44;;;;;;;13.10;6.20;;;;;;;-4.10;61.49;100039.29;25342;1303;3053842;-67
2022/01/25 02:26:13;;;;;;;11.90;6.20;;;;;;;-4.25;61.21;100040.19;25288;1303;3026271;-67
2022/01/25 02:28:43;;;;;;;15.00;7.30;;;;;;;-4.28;61.85;100043.59;25287;1303;3054553;-67
2022/01/25 02:31:14;;;;;;;13.50;6.40;;;;;;;-4.22;61.89;100040.39;25317;1303;3026527;-67
2022/01/25 02:33:43;;;;;;;17.20;7.60;;;;;;;-4.21;61.52;100039.88;25317;1303;3026788;-70
2022/01/25 02:36:22;;;;;;;16.60;7.90;;;;;;;-4.23;61.94;100037.30;25315;1303;3027404;-69
2022/01/25 02:38:51;;;;;;;12.90;6.30;;;;;;;-4.17;62.03;100044.20;25347;1303;3054574;-68
2022/01/25 02:41:20;;;;;;;17.10;7.60;;;;;;;-4.08;61.71;100043.93;25299;1303;3028760;-69
2022/01/25 02:43:50;;;;;;;14.50;7.20;;;;;;;-4.04;61.17;100041.23;25303;1303;3048715;-69
2022/01/25 02:49:08;;;;;;;14.00;7.30;;;;;;;-4.07;61.36;100040.17;25222;1303;3052365;-72
2022/01/25 02:51:42;;;;;;;15.00;7.10;;;;;;;-4.21;61.88;100041.58;25288;1303;3026834;-66
2022/01/25 02:54:11;;;;;;;16.70;7.60;;;;;;;-4.09;61.52;100039.65;25271;1303;3051817;-66
2022/01/25 02:56:42;;;;;;;19.40;8.10;;;;;;;-4.06;61.87;100037.95;25523;1303;3026646;-66
2022/01/25 02:59:13;;;;;;;19.50;8.70;;;;;;;-4.12;61.82;100029.01;25700;1303;3026775;-67
2022/01/25 03:01:43;;;;;;;14.80;7.40;;;;;;;-3.99;62.07;100027.73;25561;1303;3027605;-66
2022/01/25 03:04:12;;;;;;;16.20;7.00;;;;;;;-3.96;61.21;100027.42;25652;1303;3026682;-69
2022/01/25 03:06:43;;;;;;;17.90;7.20;;;;;;;-3.94;61.05;100034.45;25312;1306;3026882;-66
2022/01/25 03:09:13;;;;;;;17.00;7.80;;;;;;;-3.93;61.41;100039.08;25582;1304;3027459;-67
2022/01/25 03:11:45;;;;;;;16.40;7.30;;;;;;;-3.99;61.23;100036.63;25272;1306;3028157;-65
2022/01/25 03:14:14;;;;;;;15.50;7.40;;;;;;;-3.94;61.09;100033.60;25253;1306;3029353;-65
2022/01/25 03:17:03;;;;;;;13.10;5.30;;;;;;;-3.87;60.88;100032.11;25302;1303;3026184;-70
2022/01/25 03:19:48;;;;;;;18.40;6.70;;;;;;;-3.95;60.48;100037.18;25318;1303;3059027;-66
2022/01/25 03:25:06;;;;;;;15.30;6.80;;;;;;;-3.90;60.88;100042.18;25308;1303;3054246;-70
2022/01/25 03:27:35;;;;;;;18.20;8.00;;;;;;;-4.06;61.32;100039.66;25304;1303;3026207;-71
2022/01/25 03:30:04;;;;;;;14.00;7.40;;;;;;;-3.97;61.28;100036.13;25311;1303;3028743;-67
2022/01/25 03:32:35;;;;;;;14.70;6.80;;;;;;;-3.85;60.98;100036.41;25320;1303;3051866;-67
2022/01/25 03:35:04;;;;;;;16.20;7.40;;;;;;;-3.92;60.81;100034.98;25345;1303;3026445;-72
2022/01/25 03:37:34;;;;;;;14.60;7.10;;;;;;;-3.89;60.93;100037.41;25358;1303;3051938;-68
2022/01/25 03:40:03;;;;;;;17.40;7.50;;;;;;;-3.92;60.57;100037.03;25310;1303;3026339;-66
2022/01/25 03:42:36;;;;;;;15.50;7.10;;;;;;;-3.95;61.31;100041.28;25325;1303;3054101;-74
2022/01/25 03:45:06;;;;;;;19.00;6.90;;;;;;;-3.73;60.88;100042.13;25275;1303;3030170;-65
2022/01/25 03:50:22;;;;;;;17.20;7.50;;;;;;;-3.82;60.33;100036.25;25281;1303;3054044;-65
2022/01/25 03:52:52;;;;;;;15.00;6.90;;;;;;;-3.85;60.33;100033.49;25303;1303;3027289;-69
2022/01/25 03:55:20;;;;;;;16.90;7.50;;;;;;;-3.85;60.73;100035.20;25304;1303;3026393;-68
2022/01/25 03:57:49;;;;;;;14.70;7.40;;;;;;;-3.85;60.84;100035.88;25358;1303;3053034;-69
2022/01/25 04:00:18;;;;;;;15.20;7.60;;;;;;;-3.71;60.42;100038.90;25330;1303;3027737;-69
2022/01/25 04:02:54;;;;;;;12.90;6.30;;;;;;;-3.62;60.41;100038.43;25360;1303;3054418;-63
2022/01/25 04:05:34;;;;;;;12.80;6.40;;;;;;;-3.56;59.71;100038.98;25367;1303;3052110;-68
2022/01/25 04:08:04;;;;;;;17.30;7.20;;;;;;;-3.67;60.08;100044.22;25298;1303;3071651;-73
2022/01/25 04:10:33;;;;;;;18.20;7.50;;;;;;;-3.74;60.09;100048.80;25309;1303;3026975;-64
2022/01/25 04:13:03;;;;;;;16.60;7.00;;;;;;;-3.69;60.21;100048.15;25273;1303;3054521;-64
2022/01/25 04:15:33;;;;;;;17.40;6.80;;;;;;;-3.64;59.70;100050.92;25306;1302;3026343;-69
2022/01/25 04:26:18;;;;;;;15.20;6.70;;;;;;;-4.05;60.61;100061.77;25377;1303;3050824;-66
2022/01/25 04:28:47;;;;;;;14.50;5.90;;;;;;;-4.05;60.86;100059.00;25308;1303;3026720;-68
2022/01/25 04:31:18;;;;;;;12.80;6.70;;;;;;;-4.01;60.42;100061.95;25233;1306;3069865;-66
2022/01/25 04:34:08;;;;;;;10.10;5.40;;;;;;;-3.89;60.55;100061.71;25270;1303;3027590;-67
2022/01/25 04:58:21;;;;;;;13.70;6.70;;;;;;;-4.06;60.39;100061.56;25353;1303;3027277;-66
2022/01/25 05:00:51;;;;;;;14.30;6.80;;;;;;;-4.14;60.83;100065.44;25335;1303;3067504;-67
2022/01/25 05:03:26;;;;;;;14.20;6.20;;;;;;;-4.25;61.16;100064.65;25331;1303;3026463;-68
2022/01/25 05:08:44;;;;;;;12.70;6.60;;;;;;;-4.34;61.18;100061.31;25404;1303;3026913;-70
2022/01/25 05:16:30;;;;;;;12.10;5.90;;;;;;;-4.41;61.22;100062.96;25299;1303;3054250;-69
2022/01/25 05:22:27;;;;;;;15.90;6.30;;;;;;;-4.61;61.44;100064.47;25305;1303;3052794;-72
2022/01/25 05:24:56;;;;;;;15.90;7.70;;;;;;;-4.51;61.69;100069.36;25331;1303;3052726;-71
2022/01/25 05:27:29;;;;;;;17.60;7.10;;;;;;;-4.52;61.66;100067.81;25347;1304;3026654;-68
2022/01/25 05:29:58;;;;;;;15.30;6.90;;;;;;;-4.45;61.25;100072.51;25380;1303;3026170;-65
2022/01/25 05:32:27;;;;;;;11.70;6.20;;;;;;;-4.34;61.05;100071.08;25354;1303;3026862;-71
2022/01/25 05:34:56;;;;;;;11.70;5.80;;;;;;;-4.22;60.86;100062.12;25291;1303;3049460;-71
2022/01/25 05:37:25;;;;;;;12.60;6.20;;;;;;;-4.29;60.48;100061.19;25346;1303;3026379;-68
2022/01/25 05:39:54;;;;;;;12.50;6.20;;;;;;;-4.22;60.65;100061.60;25324;1303;3052091;-68
2022/01/25 05:42:43;;;;;;;12.90;5.80;;;;;;;-4.26;60.27;100061.05;25285;1306;3028791;-69
2022/01/25 05:45:37;;;;;;;14.20;6.40;;;;;;;-4.37;60.82;100063.52;25321;1303;3049753;-70
2022/01/25 05:48:01;;;;;;;16.30;7.40;;;;;;;-4.36;60.84;100059.77;25308;1306;3051810;-67
2022/01/25 05:50:30;;;;;;;15.90;7.80;;;;;;;-4.40;60.87;100054.59;25336;1303;3026548;-66
2022/01/25 05:53:00;;;;;;;19.70;8.70;;;;;;;-4.30;60.71;100054.00;25312;1303;3052195;-64
2022/01/25 05:55:29;;;;;;;23.80;11.10;;;;;;;-4.30;60.25;100055.89;25290;1303;3026933;-65
2022/01/25 05:57:57;;;;;;;19.60;10.20;;;;;;;-4.30;60.09;100056.05;25334;1303;3054763;-68
2022/01/25 06:00:26;;;;;;;20.60;10.20;;;;;;;-4.18;60.20;100058.55;25294;1303;3026077;-72
2022/01/25 06:02:56;;;;;;;20.00;10.10;;;;;;;-4.21;59.91;100063.84;25357;1303;3054893;-70
2022/01/25 06:05:25;;;;;;;24.40;10.60;;;;;;;-4.19;59.80;100056.66;25289;1306;3027214;-68
2022/01/25 06:07:54;;;;;;;22.40;10.60;;;;;;;-4.17;59.84;100058.90;25278;1303;3026533;-72
2022/01/25 06:10:23;;;;;;;24.60;11.50;;;;;;;-4.08;60.31;100061.36;25264;1305;3054820;-66
2022/01/25 06:12:52;;;;;;;23.50;11.30;;;;;;;-4.05;59.96;100063.29;25291;1303;3026504;-67
2022/01/25 06:15:34;;;;;;;22.70;10.60;;;;;;;-4.08;59.67;100061.04;25264;1305;3055138;-73
2022/01/25 06:18:03;;;;;;;21.80;10.50;;;;;;;-4.10;60.04;100060.67;25305;1303;3026522;-67
2022/01/25 06:20:33;;;;;;;15.50;8.10;;;;;;;-3.97;60.30;100061.98;25281;1303;3048648;-70
2022/01/25 06:23:02;;;;;;;18.80;7.90;;;;;;;-3.84;59.94;100055.57;25328;1303;3027864;-65
2022/01/25 06:25:31;;;;;;;19.20;9.00;;;;;;;-3.84;59.77;100056.44;25310;1303;3026865;-71
2022/01/25 06:28:00;;;;;;;21.20;9.50;;;;;;;-4.05;60.68;100061.23;25350;1303;3050784;-69
2022/01/25 06:30:29;;;;;;;17.80;8.80;;;;;;;-4.02;61.08;100057.16;25389;1303;3026722;-71
2022/01/25 06:32:59;;;;;;;16.70;8.00;;;;;;;-3.92;60.55;100053.48;25362;1303;3070189;-71
2022/01/25 06:35:29;;;;;;;19.20;8.70;;;;;;;-3.84;60.19;100050.11;25326;1303;3029307;-71
2022/01/25 06:37:58;;;;;;;23.20;9.60;;;;;;;-3.90;59.69;100044.08;25288;1303;3027939;-66
2022/01/25 06:40:27;;;;;;;26.30;11.20;;;;;;;-3.88;59.88;100046.13;25335;1303;3026439;-67
2022/01/25 06:42:56;;;;;;;21.70;10.70;;;;;;;-3.83;59.67;100055.58;25322;1302;3048001;-69
2022/01/25 06:45:27;;;;;;;24.60;11.30;;;;;;;-4.02;59.87;100054.59;25317;1303;3026504;-65
2022/01/25 06:47:56;;;;;;;23.80;11.00;;;;;;;-4.05;59.73;100054.73;25320;1303;3027738;-72
2022/01/25 06:50:25;;;;;;;19.90;9.80;;;;;;;-4.03;60.40;100052.35;25324;1303;3030191;-70
2022/01/25 06:52:54;;;;;;;19.60;10.60;;;;;;;-3.94;59.52;100050.20;25318;1303;3051108;-64
2022/01/25 06:55:23;;;;;;;23.40;11.40;;;;;;;-3.90;59.88;100050.21;25334;1303;3026913;-67
2022/01/25 06:57:52;;;;;;;25.50;10.80;;;;;;;-3.83;59.86;100053.18;25337;1303;3048388;-73
2022/01/25 07:00:22;;;;;;;23.60;11.30;;;;;;;-3.77;59.61;100059.21;25353;1303;3028633;-67
2022/01/25 07:02:51;;;;;;;20.00;10.20;;;;;;;-3.79;59.34;100057.15;25324;1303;3068070;-71
2022/01/25 07:05:20;;;;;;;20.10;10.50;;;;;;;-3.79;59.41;100058.52;25329;1303;3028424;-70
2022/01/25 07:07:49;;;;;;;17.80;10.50;;;;;;;-3.81;59.69;100054.58;25148;1303;3053671;-65
2022/01/25 07:10:18;;;;;;;18.50;9.80;;;;;;;-3.93;60.50;100055.86;25312;1303;3027758;-70
2022/01/25 07:12:48;;;;;;;19.00;9.30;;;;;;;-3.94;60.09;100056.52;25341;1303;3026829;-66
2022/01/25 07:15:36;;;;;;;16.50;8.60;;;;;;;-3.82;59.80;100057.65;25265;1303;3053238;-74
2022/01/25 07:18:05;;;;;;;19.00;8.50;;;;;;;-3.73;59.47;100055.32;25327;1303;3027313;-69
2022/01/25 07:20:34;;;;;;;18.50;9.80;;;;;;;-3.84;59.96;100055.23;25317;1303;3051949;-72
2022/01/25 07:23:03;;;;;;;16.50;8.90;;;;;;;-3.88;59.70;100049.73;25317;1303;3026317;-69
2022/01/25 07:25:32;;;;;;;21.40;9.60;;;;;;;-3.82;59.65;100055.08;25374;1303;3053470;-67
2022/01/25 07:28:01;;;;;;;18.90;8.70;;;;;;;-3.65;59.39;100058.28;25511;1303;3027348;-64
2022/01/25 07:30:30;;;;;;;21.10;10.50;;;;;;;-3.61;58.87;100056.26;25959;1303;3058464;-64
2022/01/25 07:33:02;;;;;;;21.20;9.70;;;;;;;-3.52;58.67;100056.98;25960;1303;3026712;-66
2022/01/25 07:35:33;;;;;;;23.40;10.10;;;;;;;-3.53;57.78;100055.77;25772;1303;3051632;-66
2022/01/25 07:38:02;;;;;;;25.40;11.80;;;;;;;-3.50;58.08;100058.89;25354;1303;3026667;-69
2022/01/25 07:40:33;;;;;;;27.60;12.50;;;;;;;-3.48;58.37;100057.55;25302;1303;3028429;-66
2022/01/25 07:43:03;;;;;;;23.50;10.30;;;;;;;-3.56;58.56;100055.60;25302;1303;3052019;-68
2022/01/25 07:45:35;;;;;;;23.20;9.90;;;;;;;-3.54;58.15;100054.74;25359;1303;3027079;-68
2022/01/25 07:48:08;;;;;;;21.90;8.40;;;;;;;-3.45;57.30;100054.13;25640;1303;3027595;-73
2022/01/25 07:50:37;;;;;;;20.90;7.40;;;;;;;-3.42;57.05;100051.91;25714;1303;3026421;-71
2022/01/25 07:53:06;;;;;;;14.10;7.10;;;;;;;-3.43;56.97;100054.98;25320;1305;3026907;-71
2022/01/25 07:55:35;;;;;;;15.90;6.90;;;;;;;-3.33;57.54;100054.70;25245;1305;3049410;-72
2022/01/25 07:58:05;;;;;;;15.50;6.90;;;;;;;-3.21;57.29;100052.18;25333;1303;3026843;-68
2022/01/25 08:00:33;;;;;;;17.30;7.50;;;;;;;-3.22;56.71;100054.24;25305;1303;3056441;-70
2022/01/25 08:03:02;;;;;;;16.30;7.10;;;;;;;-3.30;57.07;100054.71;25297;1303;3028523;-70
2022/01/25 08:05:31;;;;;;;15.90;7.60;;;;;;;-3.05;56.61;100050.39;25306;1303;3053835;-75
2022/01/25 08:08:03;;;;;;;15.40;7.80;;;;;;;-3.11;56.65;100056.52;25273;1303;3026707;-71
2022/01/25 08:10:33;;;;;;;25.10;10.80;;;;;;;-3.04;56.42;100057.06;25254;1304;3026557;-65
2022/01/25 08:13:02;;;;;;;31.50;13.70;;;;;;;-3.18;57.16;100057.34;25249;1305;3026498;-73
2022/01/25 08:15:31;;;;;;;25.90;11.60;;;;;;;-3.11;57.89;100059.43;25293;1303;3057953;-71
2022/01/25 08:18:00;;;;;;;27.40;11.40;;;;;;;-2.87;57.08;100059.36;25319;1306;3027311;-71
2022/01/25 08:20:29;;;;;;;23.60;11.00;;;;;;;-2.87;56.30;100056.45;25275;1304;3053330;-69
2022/01/25 08:22:58;;;;;;;18.20;8.20;;;;;;;-2.70;56.05;100056.67;25303;1306;3026553;-71
2022/01/25 08:25:27;;;;;;;21.20;9.70;;;;;;;-2.66;55.68;100054.80;25258;1306;3053993;-72
2022/01/25 08:27:56;;;;;;;19.10;8.80;;;;;;;-2.74;55.28;100054.27;25261;1306;3026387;-74
2022/01/25 08:31:20;;;;;;;23.40;10.70;;;;;;;-2.67;55.14;100055.99;31366;1319;3025870;-65
2022/01/25 08:33:49;;;;;;;28.00;13.30;;;;;;;-2.38;55.19;100047.83;24974;1322;3026351;-67
2022/01/25 08:36:18;;;;;;;18.50;10.00;;;;;;;-2.22;54.01;100042.52;25023;1319;3026351;-65
2022/01/25 08:38:47;;;;;;;20.20;9.40;;;;;;;-2.26;53.95;100048.52;25064;1319;3048280;-69
2022/01/25 08:41:17;;;;;;;23.30;8.80;;;;;;;-2.33;54.01;100043.02;25105;1316;3027385;-70
2022/01/25 08:43:46;;;;;;;24.10;10.10;;;;;;;-2.53;55.01;100043.00;25027;1316;3158521;-67
2022/01/25 08:46:15;;;;;;;25.70;12.80;;;;;;;-2.44;54.99;100043.02;25156;1316;3026879;-70
2022/01/25 08:48:47;;;;;;;25.70;11.70;;;;;;;-2.45;54.73;100038.71;25161;1316;3049452;-70
2022/01/25 08:51:17;;;;;;;23.10;11.30;;;;;;;-2.39;54.59;100038.39;25123;1316;3027036;-73
2022/01/25 08:53:46;;;;;;;25.50;11.50;;;;;;;-2.48;54.52;100039.75;25173;1315;3025720;-67
2022/01/25 08:56:14;;;;;;;22.40;12.40;;;;;;;-2.37;54.35;100040.96;25134;1316;3052751;-73
2022/01/25 08:58:44;;;;;;;31.40;13.90;;;;;;;-2.39;54.43;100040.45;25103;1314;3026337;-70
2022/01/25 09:01:12;;;;;;;33.90;15.20;;;;;;;-2.46;53.91;100038.89;25134;1314;3027328;-70
2022/01/25 09:03:42;;;;;;;32.40;14.80;;;;;;;-2.50;54.18;100040.60;25126;1316;3053024;-66
2022/01/25 09:06:10;;;;;;;31.10;14.80;;;;;;;-2.58;54.40;100041.63;25143;1316;3026502;-68
2022/01/25 09:08:40;;;;;;;33.50;14.80;;;;;;;-2.62;55.12;100045.20;25144;1316;3054783;-70
2022/01/25 09:11:09;;;;;;;31.70;13.50;;;;;;;-2.76;55.38;100039.16;25151;1316;3026661;-72
2022/01/25 09:13:38;;;;;;;26.30;13.90;;;;;;;-2.67;55.31;100043.12;25114;1316;3051564;-73
2022/01/25 09:35:14;;;;;;;27.80;12.20;;;;;;;-2.25;55.76;100036.50;2101;1320;3158621;-72
2022/01/25 09:41:41;;;;;;;28.40;15.90;;;;;;;-0.99;51.89;100026.66;3352;1319;3112043;-71
2022/01/25 09:52:15;;;;;;;26.90;15.60;;;;;;;-0.44;50.38;100015.51;7194;1313;3121938;-71
2022/01/25 09:55:35;;;;;;;23.20;11.40;;;;;;;-0.90;50.31;100017.84;3353;1317;3121866;-72
2022/01/25 10:02:37;;;;;;;22.10;10.50;;;;;;;-1.85;53.47;100017.11;3242;1323;3124799;-74
2022/01/25 10:05:41;;;;;;;24.00;12.50;;;;;;;-1.27;52.94;100014.73;3773;1322;3116667;-70
2022/01/25 10:08:28;;;;;;;22.70;9.50;;;;;;;-1.53;51.77;100018.06;3844;1323;3175795;-73
2022/01/25 10:12:07;;;;;;;16.50;9.40;;;;;;;-2.07;53.40;100015.75;2837;1323;3132604;-71
2022/01/25 10:15:28;;;;;;;20.70;10.20;;;;;;;-2.28;54.29;100011.11;2692;1322;3145758;-69
2022/01/25 10:19:11;;;;;;;20.80;10.00;;;;;;;-2.35;55.03;100011.27;2645;1323;3134106;-70
2022/01/25 10:25:58;;;;;;;21.80;9.70;;;;;;;-2.47;56.09;100008.00;2552;1326;3184377;-70
2022/01/25 10:29:15;;;;;;;20.20;9.90;;;;;;;-2.60;56.30;100003.70;2854;1324;3119005;-69
2022/01/25 10:32:27;;;;;;;17.70;9.00;;;;;;;-2.60;56.82;100002.33;2685;1324;3111811;-70
2022/01/25 10:35:20;;;;;;;17.70;9.00;;;;;;;-2.66;56.57;99997.68;2678;1321;3103017;-69
2022/01/25 10:38:40;;;;;;;26.50;14.70;;;;;;;-2.32;56.16;99999.95;2504;1325;3130515;-68
2022/01/25 10:41:33;;;;;;;26.50;14.70;;;;;;;-2.36;56.22;99998.05;2736;1326;3119196;-70
2022/01/25 10:44:14;;;;;;;26.50;14.70;;;;;;;-2.03;55.86;99998.73;2638;1324;3081957;-69
2022/01/25 10:51:34;;;;;;;23.80;13.70;;;;;;;-0.75;51.52;99983.02;23932;1315;3111029;-68
2022/01/25 10:54:10;;;;;;;20.90;10.20;;;;;;;-1.39;52.07;99985.20;25610;1302;3055040;-67
2022/01/25 10:56:50;;;;;;;16.90;9.40;;;;;;;-1.80;53.40;99980.52;25257;1310;3050222;-70
2022/01/25 10:59:32;;;;;;;18.30;9.20;;;;;;;-2.05;53.94;99978.48;25211;1312;3069484;-65
2022/01/25 11:02:04;;;;;;;16.10;8.90;;;;;;;-2.29;54.78;99981.42;25236;1312;3051439;-67
2022/01/25 11:04:37;;;;;;;19.90;10.50;;;;;;;-2.41;55.18;99978.66;25212;1312;3026271;-71
2022/01/25 11:07:10;;;;;;;19.20;9.90;;;;;;;-2.53;56.03;99983.81;25186;1312;3029330;-72
2022/01/25 11:09:45;;;;;;;20.00;10.50;;;;;;;-2.45;56.40;99974.71;25165;1312;3026409;-71
2022/01/25 11:12:17;;;;;;;18.30;9.90;;;;;;;-2.34;56.71;99972.15;25206;1312;3050155;-71
2022/01/25 11:14:57;;;;;;;17.50;10.60;;;;;;;-2.37;56.65;99969.58;25236;1312;3026699;-68
2022/01/25 11:17:27;;;;;;;20.50;10.20;;;;;;;-2.43;55.79;99965.29;25240;1312;3053200;-70
2022/01/25 11:19:56;;;;;;;21.00;9.50;;;;;;;-2.19;55.11;99968.71;25210;1312;3027803;-69
2022/01/25 11:22:26;;;;;;;18.60;9.70;;;;;;;-2.13;54.45;99963.73;25201;1312;3026490;-70
2022/01/25 11:24:57;;;;;;;19.80;10.60;;;;;;;-2.35;54.78;99960.83;25184;1312;3029688;-69
2022/01/25 11:27:28;;;;;;;25.10;11.60;;;;;;;-2.22;54.95;99953.27;25248;1312;3028402;-69
2022/01/25 11:30:01;;;;;;;25.90;11.90;;;;;;;-2.13;55.08;99948.29;25230;1312;3026848;-73
2022/01/25 11:32:34;;;;;;;29.00;11.40;;;;;;;-2.13;54.86;99945.89;25182;1316;3052278;-76
2022/01/25 11:35:04;;;;;;;24.20;12.20;;;;;;;-2.10;54.68;99946.91;25192;1312;3028548;-72
2022/01/25 11:37:42;;;;;;;30.20;13.20;;;;;;;-2.08;54.48;99948.29;25160;1312;3026732;-74
2022/01/25 11:40:31;;;;;;;19.20;10.70;;;;;;;-2.17;54.46;99946.23;25203;1312;3070050;-70
2022/01/25 11:43:06;;;;;;;19.50;11.00;;;;;;;-2.41;54.20;99946.77;25225;1312;3049155;-69
2022/01/25 11:45:38;;;;;;;23.80;12.30;;;;;;;-2.60;54.57;99949.33;25175;1310;3053617;-74
2022/01/25 11:48:07;;;;;;;26.00;12.20;;;;;;;-2.46;54.54;99953.46;25198;1312;3026215;-71
2022/01/25 11:50:43;;;;;;;20.90;11.30;;;;;;;-2.60;54.62;99951.05;25197;1313;3026766;-67
2022/01/25 11:53:14;;;;;;;22.00;10.90;;;;;;;-2.71;54.75;99945.88;25197;1310;3050244;-70
2022/01/25 11:55:46;;;;;;;22.70;12.10;;;;;;;-2.74;55.12;99945.20;25205;1311;3026704;-73
2022/01/25 11:58:25;;;;;;;24.50;12.80;;;;;;;-2.79;55.82;99943.98;25234;1310;3026803;-71
2022/01/25 12:00:58;;;;;;;23.30;11.10;;;;;;;-2.67;55.91;99940.92;25180;1316;3071929;-69
2022/01/25 12:03:35;;;;;;;24.10;12.70;;;;;;;-2.54;54.91;99939.56;25135;1312;3027010;-73
2022/01/25 12:06:10;;;;;;;31.30;13.30;;;;;;;-2.47;54.79;99941.96;25115;1312;3054197;-70
2022/01/25 12:11:33;;;;;;;30.70;12.80;;;;;;;-2.31;54.58;99937.48;25170;1312;3058708;-65
2022/01/25 12:14:22;;;;;;;22.60;10.90;;;;;;;-2.27;54.68;99938.00;25197;1312;3049632;-66
2022/01/25 12:21:17;;;;;;;27.80;12.60;;;;;;;-2.47;54.42;99927.71;12607;1319;3063275;-71
2022/01/25 12:25:47;;;;;;;29.70;13.10;;;;;;;-2.39;54.24;99926.17;13388;1320;3076923;-72
2022/01/25 12:29:54;;;;;;;26.90;12.90;;;;;;;-2.56;54.67;99922.58;13479;1319;3059189;-72
2022/01/25 12:33:37;;;;;;;28.80;13.40;;;;;;;-2.55;54.84;99926.34;13721;1319;3065304;-71
2022/01/25 12:37:03;;;;;;;;;;;;;;;;;;;;;
2022/01/25 12:40:36;;;;;;;32.50;15.20;;;;;;;-2.74;55.81;99918.44;12441;1318;3068723;-69
2022/01/25 12:57:41;;;;;;;26.80;12.70;;;;;;;-2.30;54.63;99901.62;11078;1316;3120676;-68
2022/01/25 13:01:34;;;;;;;31.30;13.70;;;;;;;-2.29;54.86;99904.54;6865;1312;3110764;-71
2022/01/25 13:04:19;;;;;;;26.00;13.80;;;;;;;-2.28;54.65;99898.71;8946;1315;3118802;-73
2022/01/25 13:07:24;;;;;;;23.70;12.50;;;;;;;-2.30;54.63;99900.25;6535;1317;3185666;-71
2022/01/25 13:10:44;;;;;;;28.80;12.90;;;;;;;-2.32;54.68;99896.30;5550;1320;3087173;-72
2022/01/25 13:13:29;;;;;;;23.80;11.10;;;;;;;-2.38;54.40;99897.68;6312;1319;3119552;-73
2022/01/25 13:16:39;;;;;;;29.90;13.20;;;;;;;-2.44;54.65;99898.04;10870;1315;3142434;-71
2022/01/25 13:23:05;;;;;;;27.10;13.20;;;;;;;-2.79;55.72;99893.58;10046;1316;3098686;-70
2022/01/25 13:26:38;;;;;;;29.10;12.40;;;;;;;-2.72;55.44;99898.73;9892;1313;3121579;-70
2022/01/25 13:33:37;;;;;;;26.60;13.30;;;;;;;-2.79;55.13;99905.24;8777;1315;3169824;-71
2022/01/25 13:47:11;;;;;;;25.60;13.40;;;;;;;-2.59;54.62;99893.06;8776;1316;3143493;-71
2022/01/25 14:00:14;;;;;;;19.50;10.90;;;;;;;-2.85;55.53;99892.20;4818;1315;3081714;-72
2022/01/25 14:04:22;;;;;;;29.30;12.70;;;;;;;-2.87;55.61;99890.99;7842;1314;3101023;-69
2022/01/25 14:08:21;;;;;;;26.90;10.80;;;;;;;-2.94;55.54;99894.59;9523;1315;3145235;-70
2022/01/25 14:23:29;;;;;;;23.20;10.60;;;;;;;-3.14;55.71;99888.91;3175;1323;3093653;-73
2022/01/25 14:27:17;;;;;;;22.50;11.00;;;;;;;-3.24;56.18;99889.56;3405;1319;3098288;-72
2022/01/25 14:30:39;;;;;;;22.50;11.00;;;;;;;-3.24;56.14;99888.02;3417;1323;3122940;-74
2022/01/25 14:34:27;;;;;;;22.50;11.00;;;;;;;-2.67;54.98;99893.92;3246;1313;3092072;-72
2022/01/25 14:37:47;;;;;;;33.60;17.40;;;;;;;-2.01;52.83;99893.52;15476;1304;3090225;-72
2022/01/25 14:40:16;;;;;;;29.00;14.10;;;;;;;-2.14;52.92;99893.02;25333;1306;3053572;-73
2022/01/25 14:42:46;;;;;;;24.40;12.70;;;;;;;-2.59;54.09;99891.35;25337;1306;3026914;-69
2022/01/25 14:45:20;;;;;;;22.40;11.80;;;;;;;-2.72;53.96;99890.33;25354;1303;3027326;-69
2022/01/25 14:47:51;;;;;;;21.80;12.00;;;;;;;-2.75;54.17;99880.54;25429;1306;3049645;-71
2022/01/25 14:50:25;;;;;;;25.60;12.30;;;;;;;-2.90;54.14;99873.16;25430;1305;3026090;-68
2022/01/25 14:53:01;;;;;;;21.50;11.60;;;;;;;-3.09;54.93;99874.35;25269;1305;3054104;-70
2022/01/25 14:55:30;;;;;;;24.90;11.90;;;;;;;-3.03;54.88;99873.66;25306;1305;3055944;-71
2022/01/25 15:00:59;;;;;;;29.10;14.80;;;;;;;-3.09;55.92;99874.17;25322;1303;3056210;-67
2022/01/25 15:03:30;;;;;;;30.10;15.20;;;;;;;-2.93;55.32;99885.34;25396;1303;3027352;-76
2022/01/25 15:05:59;;;;;;;24.40;12.50;;;;;;;-2.90;54.95;99889.10;25317;1306;3026759;-70
2022/01/25 15:08:28;;;;;;;26.90;13.70;;;;;;;-3.09;55.25;99893.02;25333;1306;3026612;-73
2022/01/25 15:11:00;;;;;;;26.10;13.90;;;;;;;-3.17;55.37;99894.73;25322;1306;3050008;-73
2022/01/25 15:13:30;;;;;;;27.80;14.00;;;;;;;-3.15;55.32;99894.21;25297;1306;3027613;-73
2022/01/25 15:15:59;;;;;;;27.10;13.20;;;;;;;-3.13;55.55;99889.42;25289;1305;3026034;-70
2022/01/25 15:18:32;;;;;;;22.20;11.90;;;;;;;-3.33;56.08;99884.23;25371;1304;3025999;-74
2022/01/25 15:21:03;;;;;;;24.30;12.10;;;;;;;-3.38;56.23;99883.20;25279;1305;3067635;-72
2022/01/25 15:23:33;;;;;;;28.00;12.90;;;;;;;-3.37;55.46;99882.34;25374;1305;3026610;-70
2022/01/25 15:26:08;;;;;;;23.90;11.30;;;;;;;-3.28;55.46;99888.02;25313;1306;3026252;-74
2022/01/25 15:28:42;;;;;;;20.30;11.00;;;;;;;-3.33;55.40;99885.44;25296;1305;3051152;-70
2022/01/25 15:31:18;;;;;;;19.00;10.40;;;;;;;-3.42;55.31;99893.97;25311;1303;3056077;-70